Portada
METAR-TAF:

METAR-TAF

Aeropuertos :

Parsabad, Irán

latitud: 39-36-13N, longitud: 47-52-53E, altitud: 77 m

Observación

El informe se hizo hace 53 minutos, a las 10:00 UTC
Viento 4 kt del norte-noroeste
Temperatura 16°C
Humedad 55%
Presión 1018 hPa
Visibilidad 10 km o más
Escasas nubes a una altura de 4000 ft

METAR: OITP 231000Z 34004KT 9999 FEW040 16/07 Q1018

Hora: 14:23 (10:53 UTC)


TAF: falta

Observaciones y pronósticos meteorológicos de más de 4000 aeropuertos (mensajes METAR y TAF).

Los puntos amarillos y rojos representan las estaciones disponibles.

Ponga el ratón en el punto deseado para ver el nombre de la estación.

Haga clic para ver las observaciones y los pronósticos meteorológicos.

Para cambiar el mapa : haga clic en los botones verdes con una cruz de color negro para hacer un zoom, en el botón verde con un guión para alejar o en las flechas verdes para mapas adyacentes.


METAR-TAF: